CheckWX is a tool to help pilots better visualize weather data.  It is not intended as a substitute for an official pre-flight weather briefing.

20:13:01 UTC

KPQL METAR
Trent Lott International Airport
Pascagoula, Mississippi, USA
Current

20 mins ago

KPQL 231953Z 21006KT 10SM CLR 23/13 A3012 RMK AO2 SLP200 T02330133
Observed
Apr-23 @ 19:53 UTC
Wind
  • 210° at 6 KTS
Visibility
10 SM
Flight Rules
VFR
Cloud Levels
  • Clear skies
Temperature
23°C / 73°F
Dewpoint
13°C / 55°F
Humidity
53%
Altimeter
30.12" Hg
Pressure
1020.02 hPa
Previous

1 hour ago

KPQL 231853Z 16008KT 10SM CLR 26/13 A3014 RMK AO2 SLP206 T02560128
Observed
Apr-23 @ 18:53 UTC
Wind
  • 160° at 8 KTS
Visibility
10 SM
Flight Rules
VFR
Cloud Levels
  • Clear skies
Temperature
26°C / 79°F
Dewpoint
13°C / 55°F
Humidity
45%
Altimeter
30.14" Hg
Pressure
1020.62 hPa
Previous

2 hours ago

KPQL 231753Z 15008G14KT 10SM CLR 26/07 A3014 RMK AO2 SLP206 T02560072 10267 20122 58004
Observed
Apr-23 @ 17:53 UTC
Wind
  • 150° at 8 KTS
  • Gusting to 14 KTS
Visibility
10 SM
Flight Rules
VFR
Cloud Levels
  • Clear skies
Temperature
26°C / 79°F
Dewpoint
C / 45°F
Humidity
30%
Altimeter
30.14" Hg
Pressure
1020.62 hPa